Terminal Aerodrome Forecast
Issued by NWS Twin Cities, MN

Home | Current Version | Previous Version | Graphics & Text | Print | Product List | Glossary On
Versions: 1 2 3 4 5 6 7 8 9 10 11 12 13 14 15 16 17
991
FTUS43 KMPX 200714 AAA
TAFEAU
TAF AMD
KEAU 200714Z 2007/2106 VRB03KT P6SM SCT250
     FM201000 24004KT P6SM -SHRA BKN090
     FM201400 27007KT P6SM VCSH BKN080
     FM201600 29008KT P6SM BKN060
     FM201800 31008KT P6SM SCT060 SCT250
     FM210000 32006KT P6SM SCT250=

USA.gov is the U.S. government's official web portal to all federal, state and local government web resources and services.